sensor_id;sensor_type;location;lat;lon;timestamp;P1;durP1;ratioP1;P2;durP2;ratioP2
21101;SDS011;10709;49.006;12.100;2023-07-20T00:01:27;3.85;;;3.00;;
21101;SDS011;10709;49.006;12.100;2023-07-20T00:03:54;5.15;;;3.20;;
21101;SDS011;10709;49.006;12.100;2023-07-20T00:06:24;4.45;;;3.05;;
21101;SDS011;10709;49.006;12.100;2023-07-20T00:08:54;3.80;;;3.33;;
21101;SDS011;10709;49.006;12.100;2023-07-20T00:11:25;5.55;;;3.10;;
21101;SDS011;10709;49.006;12.100;2023-07-20T00:13:53;6.18;;;3.33;;
21101;SDS011;10709;49.006;12.100;2023-07-20T00:18:55;4.90;;;3.00;;
21101;SDS011;10709;49.006;12.100;2023-07-20T00:21:22;3.72;;;3.10;;
21101;SDS011;10709;49.006;12.100;2023-07-20T00:23:49;4.82;;;3.33;;
21101;SDS011;10709;49.006;12.100;2023-07-20T00:41:43;3.25;;;2.53;;
21101;SDS011;10709;49.006;12.100;2023-07-20T00:54:26;4.38;;;3.03;;
21101;SDS011;10709;49.006;12.100;2023-07-20T00:56:54;4.50;;;3.33;;
21101;SDS011;10709;49.006;12.100;2023-07-20T00:59:21;4.30;;;3.30;;
21101;SDS011;10709;49.006;12.100;2023-07-20T01:01:48;4.15;;;3.20;;
21101;SDS011;10709;49.006;12.100;2023-07-20T01:04:15;4.53;;;3.25;;
21101;SDS011;10709;49.006;12.100;2023-07-20T01:12:13;5.05;;;3.17;;
21101;SDS011;10709;49.006;12.100;2023-07-20T01:14:43;5.47;;;3.08;;
21101;SDS011;10709;49.006;12.100;2023-07-20T01:17:09;4.18;;;3.20;;
21101;SDS011;10709;49.006;12.100;2023-07-20T01:19:36;3.60;;;3.00;;
21101;SDS011;10709;49.006;12.100;2023-07-20T01:22:06;3.67;;;2.83;;
21101;SDS011;10709;49.006;12.100;2023-07-20T01:30:16;5.05;;;3.33;;
21101;SDS011;10709;49.006;12.100;2023-07-20T01:33:01;5.18;;;2.90;;
21101;SDS011;10709;49.006;12.100;2023-07-20T01:35:29;4.05;;;3.00;;
21101;SDS011;10709;49.006;12.100;2023-07-20T01:40:41;5.72;;;3.45;;
21101;SDS011;10709;49.006;12.100;2023-07-20T01:43:09;4.38;;;3.08;;
21101;SDS011;10709;49.006;12.100;2023-07-20T01:45:38;4.63;;;3.00;;
21101;SDS011;10709;49.006;12.100;2023-07-20T02:01:31;5.75;;;3.17;;
21101;SDS011;10709;49.006;12.100;2023-07-20T02:03:58;3.75;;;2.70;;
21101;SDS011;10709;49.006;12.100;2023-07-20T02:15:08;5.50;;;3.63;;
21101;SDS011;10709;49.006;12.100;2023-07-20T02:20:17;5.18;;;3.40;;
21101;SDS011;10709;49.006;12.100;2023-07-20T02:22:45;6.28;;;3.50;;
21101;SDS011;10709;49.006;12.100;2023-07-20T02:25:14;4.68;;;3.30;;
21101;SDS011;10709;49.006;12.100;2023-07-20T02:27:41;3.90;;;3.40;;
21101;SDS011;10709;49.006;12.100;2023-07-20T02:30:08;4.93;;;3.28;;
21101;SDS011;10709;49.006;12.100;2023-07-20T02:32:35;5.72;;;3.45;;
21101;SDS011;10709;49.006;12.100;2023-07-20T02:35:04;4.15;;;3.58;;
21101;SDS011;10709;49.006;12.100;2023-07-20T02:53:47;4.45;;;3.45;;
21101;SDS011;10709;49.006;12.100;2023-07-20T02:56:14;5.47;;;3.45;;
21101;SDS011;10709;49.006;12.100;2023-07-20T02:58:41;5.38;;;3.28;;
21101;SDS011;10709;49.006;12.100;2023-07-20T03:01:12;4.50;;;3.20;;
21101;SDS011;10709;49.006;12.100;2023-07-20T03:03:42;3.38;;;2.92;;
21101;SDS011;10709;49.006;12.100;2023-07-20T03:06:13;4.57;;;2.95;;
21101;SDS011;10709;49.006;12.100;2023-07-20T03:08:43;3.42;;;2.95;;
21101;SDS011;10709;49.006;12.100;2023-07-20T03:11:11;4.47;;;3.00;;
21101;SDS011;10709;49.006;12.100;2023-07-20T03:13:38;3.55;;;3.08;;
21101;SDS011;10709;49.006;12.100;2023-07-20T03:16:05;5.25;;;3.20;;
21101;SDS011;10709;49.006;12.100;2023-07-20T03:23:54;4.85;;;3.35;;
21101;SDS011;10709;49.006;12.100;2023-07-20T03:26:22;3.80;;;3.05;;
21101;SDS011;10709;49.006;12.100;2023-07-20T03:28:49;6.25;;;3.15;;
21101;SDS011;10709;49.006;12.100;2023-07-20T03:31:16;4.35;;;2.70;;
21101;SDS011;10709;49.006;12.100;2023-07-20T03:33:44;3.83;;;3.00;;
21101;SDS011;10709;49.006;12.100;2023-07-20T03:36:11;2.97;;;2.72;;
21101;SDS011;10709;49.006;12.100;2023-07-20T03:38:38;3.38;;;2.92;;
21101;SDS011;10709;49.006;12.100;2023-07-20T03:41:06;4.75;;;3.00;;
21101;SDS011;10709;49.006;12.100;2023-07-20T03:43:33;4.22;;;3.00;;
21101;SDS011;10709;49.006;12.100;2023-07-20T03:46:00;4.18;;;3.10;;
21101;SDS011;10709;49.006;12.100;2023-07-20T03:48:27;3.92;;;3.08;;
21101;SDS011;10709;49.006;12.100;2023-07-20T03:50:54;4.07;;;3.00;;
21101;SDS011;10709;49.006;12.100;2023-07-20T03:53:23;5.53;;;3.13;;
21101;SDS011;10709;49.006;12.100;2023-07-20T03:55:50;4.30;;;2.92;;
21101;SDS011;10709;49.006;12.100;2023-07-20T03:58:19;3.75;;;2.90;;
21101;SDS011;10709;49.006;12.100;2023-07-20T04:00:49;5.28;;;3.60;;
21101;SDS011;10709;49.006;12.100;2023-07-20T04:03:18;4.68;;;3.10;;
21101;SDS011;10709;49.006;12.100;2023-07-20T04:05:46;4.28;;;3.35;;
21101;SDS011;10709;49.006;12.100;2023-07-20T04:08:13;5.20;;;3.40;;
21101;SDS011;10709;49.006;12.100;2023-07-20T04:10:43;4.90;;;3.17;;
21101;SDS011;10709;49.006;12.100;2023-07-20T04:13:10;4.80;;;3.28;;
21101;SDS011;10709;49.006;12.100;2023-07-20T04:15:37;5.25;;;3.25;;
21101;SDS011;10709;49.006;12.100;2023-07-20T04:18:04;4.00;;;2.97;;
21101;SDS011;10709;49.006;12.100;2023-07-20T04:20:30;5.65;;;3.10;;
21101;SDS011;10709;49.006;12.100;2023-07-20T04:22:57;3.55;;;2.90;;
21101;SDS011;10709;49.006;12.100;2023-07-20T04:25:25;4.28;;;3.08;;
21101;SDS011;10709;49.006;12.100;2023-07-20T04:27:52;7.47;;;3.33;;
21101;SDS011;10709;49.006;12.100;2023-07-20T04:30:19;6.35;;;2.97;;
21101;SDS011;10709;49.006;12.100;2023-07-20T04:32:47;3.63;;;3.00;;
21101;SDS011;10709;49.006;12.100;2023-07-20T04:35:44;4.53;;;3.10;;
21101;SDS011;10709;49.006;12.100;2023-07-20T04:38:20;5.22;;;3.00;;
21101;SDS011;10709;49.006;12.100;2023-07-20T04:40:48;5.00;;;3.00;;
21101;SDS011;10709;49.006;12.100;2023-07-20T04:43:17;6.32;;;3.22;;
21101;SDS011;10709;49.006;12.100;2023-07-20T04:45:44;4.80;;;3.00;;
21101;SDS011;10709;49.006;12.100;2023-07-20T04:48:12;4.47;;;3.10;;
21101;SDS011;10709;49.006;12.100;2023-07-20T04:50:42;3.85;;;3.00;;
21101;SDS011;10709;49.006;12.100;2023-07-20T04:53:11;6.22;;;3.20;;
21101;SDS011;10709;49.006;12.100;2023-07-20T04:55:38;4.07;;;2.80;;
21101;SDS011;10709;49.006;12.100;2023-07-20T04:58:06;5.88;;;3.25;;
21101;SDS011;10709;49.006;12.100;2023-07-20T05:00:33;6.63;;;3.08;;
21101;SDS011;10709;49.006;12.100;2023-07-20T05:03:00;5.05;;;3.00;;
21101;SDS011;10709;49.006;12.100;2023-07-20T05:05:27;4.88;;;2.95;;
21101;SDS011;10709;49.006;12.100;2023-07-20T05:07:53;5.07;;;2.95;;
21101;SDS011;10709;49.006;12.100;2023-07-20T05:10:20;4.63;;;2.85;;
21101;SDS011;10709;49.006;12.100;2023-07-20T05:12:47;4.82;;;2.83;;
21101;SDS011;10709;49.006;12.100;2023-07-20T05:15:13;4.05;;;3.08;;
21101;SDS011;10709;49.006;12.100;2023-07-20T05:17:41;4.80;;;3.10;;
21101;SDS011;10709;49.006;12.100;2023-07-20T05:20:08;5.55;;;3.00;;
21101;SDS011;10709;49.006;12.100;2023-07-20T05:22:44;6.75;;;3.20;;
21101;SDS011;10709;49.006;12.100;2023-07-20T05:25:11;4.50;;;3.33;;
21101;SDS011;10709;49.006;12.100;2023-07-20T05:27:39;6.03;;;3.10;;
21101;SDS011;10709;49.006;12.100;2023-07-20T05:30:08;4.22;;;3.10;;
21101;SDS011;10709;49.006;12.100;2023-07-20T05:32:35;5.95;;;2.90;;
21101;SDS011;10709;49.006;12.100;2023-07-20T05:35:02;5.15;;;2.90;;
21101;SDS011;10709;49.006;12.100;2023-07-20T05:37:29;7.07;;;3.40;;
21101;SDS011;10709;49.006;12.100;2023-07-20T05:39:56;7.38;;;3.33;;
21101;SDS011;10709;49.006;12.100;2023-07-20T05:42:23;5.88;;;3.30;;
21101;SDS011;10709;49.006;12.100;2023-07-20T05:44:50;8.57;;;4.20;;
21101;SDS011;10709;49.006;12.100;2023-07-20T05:49:54;7.70;;;3.70;;
21101;SDS011;10709;49.006;12.100;2023-07-20T05:52:23;6.53;;;3.92;;
21101;SDS011;10709;49.006;12.100;2023-07-20T05:54:50;5.40;;;3.58;;
21101;SDS011;10709;49.006;12.100;2023-07-20T05:57:17;6.18;;;3.47;;
21101;SDS011;10709;49.006;12.100;2023-07-20T05:59:43;6.00;;;3.63;;
21101;SDS011;10709;49.006;12.100;2023-07-20T06:02:11;11.02;;;4.10;;
21101;SDS011;10709;49.006;12.100;2023-07-20T06:04:38;7.28;;;3.78;;
21101;SDS011;10709;49.006;12.100;2023-07-20T06:07:05;6.40;;;4.55;;
21101;SDS011;10709;49.006;12.100;2023-07-20T06:09:34;8.98;;;4.60;;
21101;SDS011;10709;49.006;12.100;2023-07-20T06:12:03;11.55;;;5.00;;
21101;SDS011;10709;49.006;12.100;2023-07-20T06:14:29;7.05;;;4.80;;
21101;SDS011;10709;49.006;12.100;2023-07-20T06:16:56;7.30;;;4.93;;
21101;SDS011;10709;49.006;12.100;2023-07-20T06:19:22;8.50;;;5.35;;
21101;SDS011;10709;49.006;12.100;2023-07-20T06:21:49;11.15;;;5.00;;
21101;SDS011;10709;49.006;12.100;2023-07-20T06:24:18;7.15;;;4.75;;
21101;SDS011;10709;49.006;12.100;2023-07-20T06:26:44;9.80;;;4.95;;
21101;SDS011;10709;49.006;12.100;2023-07-20T06:29:11;6.35;;;4.65;;
21101;SDS011;10709;49.006;12.100;2023-07-20T06:31:37;7.45;;;4.57;;
21101;SDS011;10709;49.006;12.100;2023-07-20T06:34:04;7.93;;;4.60;;
21101;SDS011;10709;49.006;12.100;2023-07-20T06:36:31;5.65;;;4.40;;
21101;SDS011;10709;49.006;12.100;2023-07-20T06:38:57;6.05;;;4.20;;
21101;SDS011;10709;49.006;12.100;2023-07-20T06:41:27;6.18;;;4.35;;
21101;SDS011;10709;49.006;12.100;2023-07-20T06:43:56;7.53;;;4.68;;
21101;SDS011;10709;49.006;12.100;2023-07-20T06:46:25;5.75;;;4.28;;
21101;SDS011;10709;49.006;12.100;2023-07-20T06:48:53;7.85;;;4.03;;
21101;SDS011;10709;49.006;12.100;2023-07-20T06:51:24;6.43;;;4.53;;
21101;SDS011;10709;49.006;12.100;2023-07-20T06:53:51;5.57;;;4.30;;
21101;SDS011;10709;49.006;12.100;2023-07-20T06:56:18;5.57;;;4.55;;
21101;SDS011;10709;49.006;12.100;2023-07-20T06:58:48;7.22;;;4.13;;
21101;SDS011;10709;49.006;12.100;2023-07-20T07:01:15;8.98;;;4.20;;
21101;SDS011;10709;49.006;12.100;2023-07-20T07:03:43;6.55;;;4.13;;
21101;SDS011;10709;49.006;12.100;2023-07-20T07:06:10;6.65;;;4.15;;
21101;SDS011;10709;49.006;12.100;2023-07-20T07:08:37;4.38;;;3.83;;
21101;SDS011;10709;49.006;12.100;2023-07-20T07:11:03;8.65;;;3.85;;
21101;SDS011;10709;49.006;12.100;2023-07-20T07:13:30;6.18;;;3.90;;
21101;SDS011;10709;49.006;12.100;2023-07-20T07:15:57;5.10;;;3.50;;
21101;SDS011;10709;49.006;12.100;2023-07-20T07:18:23;7.57;;;4.40;;
21101;SDS011;10709;49.006;12.100;2023-07-20T07:20:51;7.80;;;4.38;;
21101;SDS011;10709;49.006;12.100;2023-07-20T07:23:19;6.55;;;4.50;;
21101;SDS011;10709;49.006;12.100;2023-07-20T07:25:46;8.38;;;4.50;;
21101;SDS011;10709;49.006;12.100;2023-07-20T07:28:12;7.15;;;4.50;;
21101;SDS011;10709;49.006;12.100;2023-07-20T07:30:39;6.05;;;4.45;;
21101;SDS011;10709;49.006;12.100;2023-07-20T07:33:05;7.90;;;4.30;;
21101;SDS011;10709;49.006;12.100;2023-07-20T07:35:32;6.38;;;3.80;;
21101;SDS011;10709;49.006;12.100;2023-07-20T07:37:59;7.85;;;4.18;;
21101;SDS011;10709;49.006;12.100;2023-07-20T07:40:44;8.32;;;4.13;;
21101;SDS011;10709;49.006;12.100;2023-07-20T07:43:10;8.73;;;4.72;;
21101;SDS011;10709;49.006;12.100;2023-07-20T07:45:38;8.27;;;4.25;;
21101;SDS011;10709;49.006;12.100;2023-07-20T07:48:05;7.38;;;4.38;;
21101;SDS011;10709;49.006;12.100;2023-07-20T07:50:32;8.00;;;4.85;;
21101;SDS011;10709;49.006;12.100;2023-07-20T07:53:00;5.65;;;3.72;;
21101;SDS011;10709;49.006;12.100;2023-07-20T07:55:27;5.07;;;3.75;;
21101;SDS011;10709;49.006;12.100;2023-07-20T07:57:54;4.60;;;3.20;;
21101;SDS011;10709;49.006;12.100;2023-07-20T08:00:23;4.97;;;3.33;;
21101;SDS011;10709;49.006;12.100;2023-07-20T08:02:53;8.02;;;4.00;;
21101;SDS011;10709;49.006;12.100;2023-07-20T08:05:19;5.72;;;3.30;;
21101;SDS011;10709;49.006;12.100;2023-07-20T08:08:03;5.55;;;3.60;;
21101;SDS011;10709;49.006;12.100;2023-07-20T08:10:55;6.43;;;3.50;;
21101;SDS011;10709;49.006;12.100;2023-07-20T08:14:51;5.55;;;3.55;;
21101;SDS011;10709;49.006;12.100;2023-07-20T08:26:34;3.72;;;2.58;;
21101;SDS011;10709;49.006;12.100;2023-07-20T08:29:46;4.50;;;2.92;;
21101;SDS011;10709;49.006;12.100;2023-07-20T08:33:03;4.57;;;3.10;;
21101;SDS011;10709;49.006;12.100;2023-07-20T08:36:53;83.13;;;25.05;;
21101;SDS011;10709;49.006;12.100;2023-07-20T08:40:17;85.55;;;34.95;;
21101;SDS011;10709;49.006;12.100;2023-07-20T08:43:11;21.98;;;10.80;;
21101;SDS011;10709;49.006;12.100;2023-07-20T08:46:47;8.52;;;5.57;;
21101;SDS011;10709;49.006;12.100;2023-07-20T08:50:15;11.15;;;4.05;;
21101;SDS011;10709;49.006;12.100;2023-07-20T08:54:19;4.22;;;2.28;;
21101;SDS011;10709;49.006;12.100;2023-07-20T08:57:58;5.22;;;2.72;;
21101;SDS011;10709;49.006;12.100;2023-07-20T09:09:16;3.00;;;2.08;;
21101;SDS011;10709;49.006;12.100;2023-07-20T09:12:55;2.92;;;1.92;;
21101;SDS011;10709;49.006;12.100;2023-07-20T09:32:01;2.75;;;2.10;;
21101;SDS011;10709;49.006;12.100;2023-07-20T09:35:36;4.00;;;2.22;;
21101;SDS011;10709;49.006;12.100;2023-07-20T09:39:42;2.90;;;1.80;;
21101;SDS011;10709;49.006;12.100;2023-07-20T09:43:18;2.75;;;1.80;;
21101;SDS011;10709;49.006;12.100;2023-07-20T09:50:56;2.35;;;1.85;;
21101;SDS011;10709;49.006;12.100;2023-07-20T09:54:30;6.43;;;2.15;;
21101;SDS011;10709;49.006;12.100;2023-07-20T10:02:33;2.80;;;1.77;;
21101;SDS011;10709;49.006;12.100;2023-07-20T10:13:41;2.35;;;1.75;;
21101;SDS011;10709;49.006;12.100;2023-07-20T10:17:35;1.88;;;1.65;;
21101;SDS011;10709;49.006;12.100;2023-07-20T10:29:00;5.00;;;2.05;;
21101;SDS011;10709;49.006;12.100;2023-07-20T10:39:24;3.13;;;1.83;;
21101;SDS011;10709;49.006;12.100;2023-07-20T10:43:20;3.88;;;1.90;;
21101;SDS011;10709;49.006;12.100;2023-07-20T10:47:17;3.22;;;1.83;;
21101;SDS011;10709;49.006;12.100;2023-07-20T11:01:58;4.63;;;2.17;;
21101;SDS011;10709;49.006;12.100;2023-07-20T11:09:49;2.55;;;1.80;;
21101;SDS011;10709;49.006;12.100;2023-07-20T11:13:53;6.20;;;1.90;;
21101;SDS011;10709;49.006;12.100;2023-07-20T11:21:40;3.83;;;1.90;;
21101;SDS011;10709;49.006;12.100;2023-07-20T11:25:18;4.55;;;1.90;;
21101;SDS011;10709;49.006;12.100;2023-07-20T11:33:10;5.45;;;1.90;;
21101;SDS011;10709;49.006;12.100;2023-07-20T11:45:07;4.63;;;1.90;;
21101;SDS011;10709;49.006;12.100;2023-07-20T11:52:43;2.45;;;1.63;;
21101;SDS011;10709;49.006;12.100;2023-07-20T11:56:47;3.08;;;1.85;;
21101;SDS011;10709;49.006;12.100;2023-07-20T12:04:44;2.20;;;1.70;;
21101;SDS011;10709;49.006;12.100;2023-07-20T12:08:32;4.07;;;1.80;;
21101;SDS011;10709;49.006;12.100;2023-07-20T12:11:12;3.72;;;1.80;;
21101;SDS011;10709;49.006;12.100;2023-07-20T12:13:52;4.07;;;2.00;;
21101;SDS011;10709;49.006;12.100;2023-07-20T12:16:51;3.80;;;2.03;;
21101;SDS011;10709;49.006;12.100;2023-07-20T12:19:29;2.78;;;1.70;;
21101;SDS011;10709;49.006;12.100;2023-07-20T12:22:09;2.50;;;1.80;;
21101;SDS011;10709;49.006;12.100;2023-07-20T12:24:39;1.77;;;1.60;;
21101;SDS011;10709;49.006;12.100;2023-07-20T12:39:10;5.00;;;1.83;;
21101;SDS011;10709;49.006;12.100;2023-07-20T13:11:01;1.98;;;1.65;;
21101;SDS011;10709;49.006;12.100;2023-07-20T13:13:31;4.78;;;1.50;;
21101;SDS011;10709;49.006;12.100;2023-07-20T13:16:01;3.13;;;1.70;;
21101;SDS011;10709;49.006;12.100;2023-07-20T13:18:28;3.65;;;1.80;;
21101;SDS011;10709;49.006;12.100;2023-07-20T13:33:02;2.50;;;1.50;;
21101;SDS011;10709;49.006;12.100;2023-07-20T13:35:38;1.92;;;1.55;;
21101;SDS011;10709;49.006;12.100;2023-07-20T14:59:11;3.63;;;1.70;;
21101;SDS011;10709;49.006;12.100;2023-07-20T15:01:39;3.25;;;1.60;;
21101;SDS011;10709;49.006;12.100;2023-07-20T15:04:09;2.85;;;1.60;;
21101;SDS011;10709;49.006;12.100;2023-07-20T15:06:42;4.57;;;1.70;;
21101;SDS011;10709;49.006;12.100;2023-07-20T15:09:24;3.65;;;1.70;;
21101;SDS011;10709;49.006;12.100;2023-07-20T15:12:46;5.00;;;1.55;;
21101;SDS011;10709;49.006;12.100;2023-07-20T15:18:06;4.45;;;1.50;;
21101;SDS011;10709;49.006;12.100;2023-07-20T15:21:16;3.10;;;1.45;;
21101;SDS011;10709;49.006;12.100;2023-07-20T15:23:45;3.22;;;1.60;;
21101;SDS011;10709;49.006;12.100;2023-07-20T15:26:17;2.22;;;1.70;;
21101;SDS011;10709;49.006;12.100;2023-07-20T15:28:53;2.22;;;1.70;;
21101;SDS011;10709;49.006;12.100;2023-07-20T15:31:26;2.38;;;1.60;;
21101;SDS011;10709;49.006;12.100;2023-07-20T15:33:58;2.00;;;1.80;;
21101;SDS011;10709;49.006;12.100;2023-07-20T15:36:36;3.15;;;1.50;;
21101;SDS011;10709;49.006;12.100;2023-07-20T15:39:19;3.78;;;1.55;;
21101;SDS011;10709;49.006;12.100;2023-07-20T15:41:51;3.35;;;1.65;;
21101;SDS011;10709;49.006;12.100;2023-07-20T15:44:20;2.08;;;1.50;;
21101;SDS011;10709;49.006;12.100;2023-07-20T15:46:57;2.15;;;1.65;;
21101;SDS011;10709;49.006;12.100;2023-07-20T15:49:26;1.52;;;1.42;;
21101;SDS011;10709;49.006;12.100;2023-07-20T15:52:08;1.95;;;1.60;;
21101;SDS011;10709;49.006;12.100;2023-07-20T15:54:43;2.05;;;1.67;;
21101;SDS011;10709;49.006;12.100;2023-07-20T15:57:25;5.68;;;1.50;;
21101;SDS011;10709;49.006;12.100;2023-07-20T16:00:04;2.13;;;1.50;;
21101;SDS011;10709;49.006;12.100;2023-07-20T16:08:50;2.30;;;1.52;;
21101;SDS011;10709;49.006;12.100;2023-07-20T16:11:25;3.05;;;1.80;;
21101;SDS011;10709;49.006;12.100;2023-07-20T16:13:59;2.72;;;1.63;;
21101;SDS011;10709;49.006;12.100;2023-07-20T16:24:45;2.03;;;1.58;;
21101;SDS011;10709;49.006;12.100;2023-07-20T16:27:12;3.20;;;1.52;;
21101;SDS011;10709;49.006;12.100;2023-07-20T16:29:39;1.85;;;1.58;;
21101;SDS011;10709;49.006;12.100;2023-07-20T16:32:09;1.73;;;1.52;;
21101;SDS011;10709;49.006;12.100;2023-07-20T16:34:36;2.50;;;1.60;;
21101;SDS011;10709;49.006;12.100;2023-07-20T16:37:06;2.40;;;1.67;;
21101;SDS011;10709;49.006;12.100;2023-07-20T16:39:53;3.22;;;1.67;;
21101;SDS011;10709;49.006;12.100;2023-07-20T16:42:20;3.72;;;1.70;;
21101;SDS011;10709;49.006;12.100;2023-07-20T16:45:07;2.08;;;1.70;;
21101;SDS011;10709;49.006;12.100;2023-07-20T16:47:34;2.70;;;1.73;;
21101;SDS011;10709;49.006;12.100;2023-07-20T16:50:02;3.00;;;1.70;;
21101;SDS011;10709;49.006;12.100;2023-07-20T16:52:29;3.83;;;1.80;;
21101;SDS011;10709;49.006;12.100;2023-07-20T16:54:56;1.73;;;1.40;;
21101;SDS011;10709;49.006;12.100;2023-07-20T17:10:53;3.83;;;1.80;;
21101;SDS011;10709;49.006;12.100;2023-07-20T17:13:22;2.92;;;1.52;;
21101;SDS011;10709;49.006;12.100;2023-07-20T17:15:48;3.35;;;1.85;;
21101;SDS011;10709;49.006;12.100;2023-07-20T17:26:17;2.17;;;1.60;;
21101;SDS011;10709;49.006;12.100;2023-07-20T17:28:47;2.92;;;1.50;;
21101;SDS011;10709;49.006;12.100;2023-07-20T17:31:14;2.00;;;1.50;;
21101;SDS011;10709;49.006;12.100;2023-07-20T17:33:42;2.65;;;1.85;;
21101;SDS011;10709;49.006;12.100;2023-07-20T17:36:08;4.75;;;1.88;;
21101;SDS011;10709;49.006;12.100;2023-07-20T17:38:38;3.42;;;1.73;;
21101;SDS011;10709;49.006;12.100;2023-07-20T17:41:07;2.38;;;1.67;;
21101;SDS011;10709;49.006;12.100;2023-07-20T17:43:34;3.03;;;1.50;;
21101;SDS011;10709;49.006;12.100;2023-07-20T17:46:01;2.20;;;1.60;;
21101;SDS011;10709;49.006;12.100;2023-07-20T17:48:31;1.92;;;1.45;;
21101;SDS011;10709;49.006;12.100;2023-07-20T17:50:59;2.40;;;1.60;;
21101;SDS011;10709;49.006;12.100;2023-07-20T17:53:26;3.83;;;1.60;;
21101;SDS011;10709;49.006;12.100;2023-07-20T17:55:53;3.15;;;1.85;;
21101;SDS011;10709;49.006;12.100;2023-07-20T17:58:21;2.70;;;1.60;;
21101;SDS011;10709;49.006;12.100;2023-07-20T18:00:50;2.17;;;1.50;;
21101;SDS011;10709;49.006;12.100;2023-07-20T18:03:19;2.28;;;1.55;;
21101;SDS011;10709;49.006;12.100;2023-07-20T18:05:46;3.95;;;1.50;;
21101;SDS011;10709;49.006;12.100;2023-07-20T18:08:13;2.50;;;1.55;;
21101;SDS011;10709;49.006;12.100;2023-07-20T18:10:40;2.55;;;1.42;;
21101;SDS011;10709;49.006;12.100;2023-07-20T18:13:07;3.40;;;1.50;;
21101;SDS011;10709;49.006;12.100;2023-07-20T18:15:34;6.07;;;1.52;;
21101;SDS011;10709;49.006;12.100;2023-07-20T18:18:01;2.85;;;1.73;;
21101;SDS011;10709;49.006;12.100;2023-07-20T18:20:28;3.58;;;1.80;;
21101;SDS011;10709;49.006;12.100;2023-07-20T18:22:55;1.85;;;1.70;;
21101;SDS011;10709;49.006;12.100;2023-07-20T18:25:22;2.92;;;1.60;;
21101;SDS011;10709;49.006;12.100;2023-07-20T18:27:49;4.82;;;1.48;;
21101;SDS011;10709;49.006;12.100;2023-07-20T18:30:16;3.35;;;1.80;;
21101;SDS011;10709;49.006;12.100;2023-07-20T18:32:45;4.03;;;1.70;;
21101;SDS011;10709;49.006;12.100;2023-07-20T18:35:12;1.83;;;1.60;;
21101;SDS011;10709;49.006;12.100;2023-07-20T18:37:39;1.70;;;1.60;;
21101;SDS011;10709;49.006;12.100;2023-07-20T18:40:06;2.90;;;1.73;;
21101;SDS011;10709;49.006;12.100;2023-07-20T18:42:34;3.58;;;1.80;;
21101;SDS011;10709;49.006;12.100;2023-07-20T18:45:04;2.35;;;1.80;;
21101;SDS011;10709;49.006;12.100;2023-07-20T18:47:31;2.42;;;1.75;;
21101;SDS011;10709;49.006;12.100;2023-07-20T18:49:58;2.10;;;1.60;;
21101;SDS011;10709;49.006;12.100;2023-07-20T18:52:27;1.95;;;1.80;;
21101;SDS011;10709;49.006;12.100;2023-07-20T18:54:53;3.42;;;1.70;;
21101;SDS011;10709;49.006;12.100;2023-07-20T19:13:42;6.10;;;2.05;;
21101;SDS011;10709;49.006;12.100;2023-07-20T19:16:09;2.92;;;1.90;;
21101;SDS011;10709;49.006;12.100;2023-07-20T19:18:36;2.67;;;1.80;;
21101;SDS011;10709;49.006;12.100;2023-07-20T19:21:06;3.20;;;1.70;;
21101;SDS011;10709;49.006;12.100;2023-07-20T19:23:33;2.80;;;1.92;;
21101;SDS011;10709;49.006;12.100;2023-07-20T19:26:04;2.28;;;2.08;;
21101;SDS011;10709;49.006;12.100;2023-07-20T19:28:32;2.97;;;1.95;;
21101;SDS011;10709;49.006;12.100;2023-07-20T19:31:01;2.28;;;1.80;;
21101;SDS011;10709;49.006;12.100;2023-07-20T19:33:28;3.30;;;1.85;;
21101;SDS011;10709;49.006;12.100;2023-07-20T19:35:55;4.88;;;2.40;;
21101;SDS011;10709;49.006;12.100;2023-07-20T19:38:24;2.45;;;2.08;;
21101;SDS011;10709;49.006;12.100;2023-07-20T19:40:53;3.53;;;2.30;;
21101;SDS011;10709;49.006;12.100;2023-07-20T19:43:20;2.67;;;1.98;;
21101;SDS011;10709;49.006;12.100;2023-07-20T19:45:54;2.47;;;2.10;;
21101;SDS011;10709;49.006;12.100;2023-07-20T19:48:20;3.05;;;1.95;;
21101;SDS011;10709;49.006;12.100;2023-07-20T19:50:48;4.20;;;2.35;;
21101;SDS011;10709;49.006;12.100;2023-07-20T19:53:21;3.45;;;2.00;;
21101;SDS011;10709;49.006;12.100;2023-07-20T19:55:56;3.53;;;2.10;;
21101;SDS011;10709;49.006;12.100;2023-07-20T19:58:25;4.65;;;1.92;;
21101;SDS011;10709;49.006;12.100;2023-07-20T20:00:52;4.07;;;2.00;;
21101;SDS011;10709;49.006;12.100;2023-07-20T20:03:22;3.08;;;2.00;;
21101;SDS011;10709;49.006;12.100;2023-07-20T20:05:52;3.50;;;2.05;;
21101;SDS011;10709;49.006;12.100;2023-07-20T20:08:19;2.88;;;2.03;;
21101;SDS011;10709;49.006;12.100;2023-07-20T20:10:52;2.75;;;2.00;;
21101;SDS011;10709;49.006;12.100;2023-07-20T20:13:38;3.15;;;2.20;;
21101;SDS011;10709;49.006;12.100;2023-07-20T20:16:05;3.22;;;2.40;;
21101;SDS011;10709;49.006;12.100;2023-07-20T20:18:32;4.13;;;2.30;;
21101;SDS011;10709;49.006;12.100;2023-07-20T20:20:59;3.45;;;2.13;;
21101;SDS011;10709;49.006;12.100;2023-07-20T20:23:26;3.55;;;2.17;;
21101;SDS011;10709;49.006;12.100;2023-07-20T20:25:52;5.53;;;1.98;;
21101;SDS011;10709;49.006;12.100;2023-07-20T20:28:20;4.43;;;2.00;;
21101;SDS011;10709;49.006;12.100;2023-07-20T20:30:47;2.45;;;2.00;;
21101;SDS011;10709;49.006;12.100;2023-07-20T20:33:16;4.07;;;2.38;;
21101;SDS011;10709;49.006;12.100;2023-07-20T20:35:50;3.22;;;2.42;;
21101;SDS011;10709;49.006;12.100;2023-07-20T20:38:19;3.47;;;2.25;;
21101;SDS011;10709;49.006;12.100;2023-07-20T20:40:47;5.03;;;2.47;;
21101;SDS011;10709;49.006;12.100;2023-07-20T20:43:15;2.88;;;2.20;;
21101;SDS011;10709;49.006;12.100;2023-07-20T20:45:41;3.78;;;2.03;;
21101;SDS011;10709;49.006;12.100;2023-07-20T20:48:07;3.20;;;2.08;;
21101;SDS011;10709;49.006;12.100;2023-07-20T20:50:35;2.67;;;2.08;;
21101;SDS011;10709;49.006;12.100;2023-07-20T20:53:02;3.40;;;1.95;;
21101;SDS011;10709;49.006;12.100;2023-07-20T20:55:29;5.95;;;2.40;;
21101;SDS011;10709;49.006;12.100;2023-07-20T20:57:56;3.30;;;2.00;;
21101;SDS011;10709;49.006;12.100;2023-07-20T21:00:23;3.85;;;2.00;;
21101;SDS011;10709;49.006;12.100;2023-07-20T21:02:51;2.75;;;2.45;;
21101;SDS011;10709;49.006;12.100;2023-07-20T21:05:18;4.13;;;2.75;;
21101;SDS011;10709;49.006;12.100;2023-07-20T21:07:45;3.40;;;2.40;;
21101;SDS011;10709;49.006;12.100;2023-07-20T21:10:12;3.90;;;2.28;;
21101;SDS011;10709;49.006;12.100;2023-07-20T21:12:38;3.55;;;2.35;;
21101;SDS011;10709;49.006;12.100;2023-07-20T21:15:05;5.03;;;2.40;;
21101;SDS011;10709;49.006;12.100;2023-07-20T21:17:33;4.35;;;2.22;;
21101;SDS011;10709;49.006;12.100;2023-07-20T21:20:00;2.92;;;2.10;;
21101;SDS011;10709;49.006;12.100;2023-07-20T21:22:28;2.65;;;1.83;;
21101;SDS011;10709;49.006;12.100;2023-07-20T21:24:55;5.53;;;1.92;;
21101;SDS011;10709;49.006;12.100;2023-07-20T21:27:21;2.25;;;1.92;;
21101;SDS011;10709;49.006;12.100;2023-07-20T21:29:48;4.40;;;2.08;;
21101;SDS011;10709;49.006;12.100;2023-07-20T21:32:14;4.03;;;2.50;;
21101;SDS011;10709;49.006;12.100;2023-07-20T21:34:42;5.57;;;2.33;;
21101;SDS011;10709;49.006;12.100;2023-07-20T21:37:09;2.60;;;2.00;;
21101;SDS011;10709;49.006;12.100;2023-07-20T21:39:36;3.50;;;2.30;;
21101;SDS011;10709;49.006;12.100;2023-07-20T21:42:02;2.33;;;2.08;;
21101;SDS011;10709;49.006;12.100;2023-07-20T21:44:30;3.22;;;2.20;;
21101;SDS011;10709;49.006;12.100;2023-07-20T21:46:56;4.15;;;2.28;;
21101;SDS011;10709;49.006;12.100;2023-07-20T21:49:23;3.70;;;2.20;;
21101;SDS011;10709;49.006;12.100;2023-07-20T21:51:50;5.32;;;2.08;;